sensor_id;sensor_type;location;lat;lon;timestamp;P1;durP1;ratioP1;P2;durP2;ratioP2
40116;SDS011;25829;50.228;18.936;2023-06-10T00:01:32;11.40;;;9.70;;
40116;SDS011;25829;50.228;18.936;2023-06-10T00:04:36;11.55;;;10.35;;
40116;SDS011;25829;50.228;18.936;2023-06-10T00:07:37;11.88;;;10.68;;
40116;SDS011;25829;50.228;18.936;2023-06-10T00:10:38;13.35;;;10.50;;
40116;SDS011;25829;50.228;18.936;2023-06-10T00:13:39;11.23;;;10.13;;
40116;SDS011;25829;50.228;18.936;2023-06-10T00:16:40;11.57;;;10.32;;
40116;SDS011;25829;50.228;18.936;2023-06-10T00:19:41;13.60;;;10.90;;
40116;SDS011;25829;50.228;18.936;2023-06-10T00:22:42;13.45;;;11.20;;
40116;SDS011;25829;50.228;18.936;2023-06-10T00:25:45;11.77;;;10.60;;
40116;SDS011;25829;50.228;18.936;2023-06-10T00:28:46;12.88;;;10.85;;
40116;SDS011;25829;50.228;18.936;2023-06-10T00:31:47;11.88;;;10.65;;
40116;SDS011;25829;50.228;18.936;2023-06-10T00:34:48;12.65;;;11.45;;
40116;SDS011;25829;50.228;18.936;2023-06-10T00:37:48;12.13;;;10.50;;
40116;SDS011;25829;50.228;18.936;2023-06-10T00:40:49;12.68;;;11.25;;
40116;SDS011;25829;50.228;18.936;2023-06-10T00:43:52;12.30;;;10.98;;
40116;SDS011;25829;50.228;18.936;2023-06-10T00:46:52;11.50;;;10.40;;
40116;SDS011;25829;50.228;18.936;2023-06-10T00:49:56;17.23;;;10.45;;
40116;SDS011;25829;50.228;18.936;2023-06-10T00:52:58;11.00;;;9.95;;
40116;SDS011;25829;50.228;18.936;2023-06-10T00:56:00;11.75;;;10.35;;
40116;SDS011;25829;50.228;18.936;2023-06-10T00:59:01;15.35;;;9.93;;
40116;SDS011;25829;50.228;18.936;2023-06-10T01:02:03;15.77;;;10.75;;
40116;SDS011;25829;50.228;18.936;2023-06-10T01:05:04;11.07;;;10.07;;
40116;SDS011;25829;50.228;18.936;2023-06-10T01:11:24;12.60;;;10.32;;
40116;SDS011;25829;50.228;18.936;2023-06-10T01:14:28;11.48;;;10.38;;
40116;SDS011;25829;50.228;18.936;2023-06-10T01:17:31;11.77;;;10.65;;
40116;SDS011;25829;50.228;18.936;2023-06-10T01:20:32;10.80;;;9.77;;
40116;SDS011;25829;50.228;18.936;2023-06-10T01:23:34;11.30;;;9.57;;
40116;SDS011;25829;50.228;18.936;2023-06-10T01:26:35;12.32;;;10.38;;
40116;SDS011;25829;50.228;18.936;2023-06-10T01:29:37;12.02;;;9.88;;
40116;SDS011;25829;50.228;18.936;2023-06-10T01:33:03;12.13;;;10.20;;
40116;SDS011;25829;50.228;18.936;2023-06-10T01:36:09;11.10;;;10.10;;
40116;SDS011;25829;50.228;18.936;2023-06-10T01:39:12;11.50;;;10.40;;
40116;SDS011;25829;50.228;18.936;2023-06-10T01:42:15;12.00;;;10.80;;
40116;SDS011;25829;50.228;18.936;2023-06-10T01:45:17;12.13;;;10.90;;
40116;SDS011;25829;50.228;18.936;2023-06-10T01:48:18;12.63;;;11.35;;
40116;SDS011;25829;50.228;18.936;2023-06-10T01:51:18;12.52;;;11.32;;
40116;SDS011;25829;50.228;18.936;2023-06-10T01:54:19;12.55;;;11.00;;
40116;SDS011;25829;50.228;18.936;2023-06-10T01:57:20;13.45;;;11.10;;
40116;SDS011;25829;50.228;18.936;2023-06-10T02:00:21;11.63;;;10.43;;
40116;SDS011;25829;50.228;18.936;2023-06-10T02:03:22;11.65;;;10.55;;
40116;SDS011;25829;50.228;18.936;2023-06-10T02:06:22;12.35;;;11.15;;
40116;SDS011;25829;50.228;18.936;2023-06-10T02:09:23;12.35;;;11.15;;
40116;SDS011;25829;50.228;18.936;2023-06-10T02:12:24;13.75;;;12.35;;
40116;SDS011;25829;50.228;18.936;2023-06-10T02:15:26;13.65;;;12.25;;
40116;SDS011;25829;50.228;18.936;2023-06-10T02:18:27;14.13;;;12.65;;
40116;SDS011;25829;50.228;18.936;2023-06-10T02:21:28;14.45;;;11.40;;
40116;SDS011;25829;50.228;18.936;2023-06-10T02:24:29;12.95;;;11.70;;
40116;SDS011;25829;50.228;18.936;2023-06-10T02:27:30;12.20;;;10.90;;
40116;SDS011;25829;50.228;18.936;2023-06-10T02:30:31;13.57;;;11.63;;
40116;SDS011;25829;50.228;18.936;2023-06-10T02:33:32;13.07;;;11.63;;
40116;SDS011;25829;50.228;18.936;2023-06-10T02:36:34;12.30;;;11.10;;
40116;SDS011;25829;50.228;18.936;2023-06-10T02:39:36;12.25;;;10.95;;
40116;SDS011;25829;50.228;18.936;2023-06-10T02:42:41;13.05;;;11.45;;
40116;SDS011;25829;50.228;18.936;2023-06-10T02:45:42;13.38;;;12.07;;
40116;SDS011;25829;50.228;18.936;2023-06-10T02:48:45;13.60;;;11.93;;
40116;SDS011;25829;50.228;18.936;2023-06-10T02:51:52;13.13;;;11.82;;
40116;SDS011;25829;50.228;18.936;2023-06-10T02:54:54;13.50;;;12.10;;
40116;SDS011;25829;50.228;18.936;2023-06-10T02:57:55;13.98;;;12.10;;
40116;SDS011;25829;50.228;18.936;2023-06-10T03:00:57;14.10;;;12.55;;
40116;SDS011;25829;50.228;18.936;2023-06-10T03:03:59;13.50;;;11.63;;
40116;SDS011;25829;50.228;18.936;2023-06-10T03:07:00;15.65;;;11.80;;
40116;SDS011;25829;50.228;18.936;2023-06-10T03:10:07;13.50;;;12.20;;
40116;SDS011;25829;50.228;18.936;2023-06-10T03:13:10;13.95;;;12.48;;
40116;SDS011;25829;50.228;18.936;2023-06-10T03:16:11;11.57;;;10.48;;
40116;SDS011;25829;50.228;18.936;2023-06-10T03:19:13;13.27;;;11.57;;
40116;SDS011;25829;50.228;18.936;2023-06-10T03:22:17;13.95;;;11.90;;
40116;SDS011;25829;50.228;18.936;2023-06-10T03:25:35;13.55;;;12.15;;
40116;SDS011;25829;50.228;18.936;2023-06-10T03:28:36;12.32;;;11.13;;
40116;SDS011;25829;50.228;18.936;2023-06-10T03:31:37;13.30;;;11.90;;
40116;SDS011;25829;50.228;18.936;2023-06-10T03:34:41;13.95;;;11.93;;
40116;SDS011;25829;50.228;18.936;2023-06-10T03:37:43;13.52;;;12.23;;
40116;SDS011;25829;50.228;18.936;2023-06-10T03:40:44;14.50;;;12.52;;
40116;SDS011;25829;50.228;18.936;2023-06-10T03:43:45;14.23;;;12.57;;
40116;SDS011;25829;50.228;18.936;2023-06-10T03:46:47;14.70;;;13.15;;
40116;SDS011;25829;50.228;18.936;2023-06-10T03:49:48;16.45;;;12.50;;
40116;SDS011;25829;50.228;18.936;2023-06-10T03:52:50;12.88;;;11.68;;
40116;SDS011;25829;50.228;18.936;2023-06-10T03:55:54;16.42;;;11.95;;
40116;SDS011;25829;50.228;18.936;2023-06-10T03:58:57;13.02;;;11.73;;
40116;SDS011;25829;50.228;18.936;2023-06-10T04:01:58;12.82;;;11.52;;
40116;SDS011;25829;50.228;18.936;2023-06-10T04:04:59;13.45;;;12.18;;
40116;SDS011;25829;50.228;18.936;2023-06-10T04:08:00;13.85;;;11.93;;
40116;SDS011;25829;50.228;18.936;2023-06-10T04:11:02;12.48;;;11.30;;
40116;SDS011;25829;50.228;18.936;2023-06-10T04:14:02;15.35;;;11.43;;
40116;SDS011;25829;50.228;18.936;2023-06-10T04:17:05;12.52;;;11.20;;
40116;SDS011;25829;50.228;18.936;2023-06-10T04:20:10;12.80;;;10.55;;
40116;SDS011;25829;50.228;18.936;2023-06-10T04:23:13;12.02;;;10.80;;
40116;SDS011;25829;50.228;18.936;2023-06-10T04:26:16;12.63;;;10.90;;
40116;SDS011;25829;50.228;18.936;2023-06-10T04:29:17;12.63;;;11.32;;
40116;SDS011;25829;50.228;18.936;2023-06-10T04:32:18;13.48;;;11.35;;
40116;SDS011;25829;50.228;18.936;2023-06-10T04:35:19;12.13;;;10.68;;
40116;SDS011;25829;50.228;18.936;2023-06-10T04:38:22;12.98;;;10.57;;
40116;SDS011;25829;50.228;18.936;2023-06-10T04:41:22;12.40;;;11.18;;
40116;SDS011;25829;50.228;18.936;2023-06-10T04:44:24;15.25;;;10.77;;
40116;SDS011;25829;50.228;18.936;2023-06-10T04:47:25;12.00;;;10.75;;
40116;SDS011;25829;50.228;18.936;2023-06-10T04:50:27;12.70;;;10.70;;
40116;SDS011;25829;50.228;18.936;2023-06-10T04:53:27;14.88;;;10.73;;
40116;SDS011;25829;50.228;18.936;2023-06-10T04:56:29;12.88;;;10.18;;
40116;SDS011;25829;50.228;18.936;2023-06-10T04:59:30;10.20;;;9.20;;
40116;SDS011;25829;50.228;18.936;2023-06-10T05:02:31;10.63;;;9.63;;
40116;SDS011;25829;50.228;18.936;2023-06-10T05:05:32;11.60;;;9.43;;
40116;SDS011;25829;50.228;18.936;2023-06-10T05:08:33;10.30;;;9.23;;
40116;SDS011;25829;50.228;18.936;2023-06-10T05:11:34;11.73;;;8.73;;
40116;SDS011;25829;50.228;18.936;2023-06-10T05:14:34;11.52;;;9.75;;
40116;SDS011;25829;50.228;18.936;2023-06-10T05:17:35;12.68;;;9.68;;
40116;SDS011;25829;50.228;18.936;2023-06-10T05:20:36;10.57;;;9.48;;
40116;SDS011;25829;50.228;18.936;2023-06-10T05:23:37;11.23;;;9.80;;
40116;SDS011;25829;50.228;18.936;2023-06-10T05:26:37;11.15;;;9.32;;
40116;SDS011;25829;50.228;18.936;2023-06-10T05:29:39;12.60;;;9.98;;
40116;SDS011;25829;50.228;18.936;2023-06-10T05:32:40;13.63;;;10.30;;
40116;SDS011;25829;50.228;18.936;2023-06-10T05:35:41;14.93;;;10.20;;
40116;SDS011;25829;50.228;18.936;2023-06-10T05:38:42;10.98;;;9.50;;
40116;SDS011;25829;50.228;18.936;2023-06-10T05:41:42;13.60;;;8.27;;
40116;SDS011;25829;50.228;18.936;2023-06-10T05:44:46;12.27;;;8.90;;
40116;SDS011;25829;50.228;18.936;2023-06-10T05:47:47;11.05;;;8.35;;
40116;SDS011;25829;50.228;18.936;2023-06-10T05:50:50;9.07;;;8.18;;
40116;SDS011;25829;50.228;18.936;2023-06-10T05:53:51;11.80;;;8.50;;
40116;SDS011;25829;50.228;18.936;2023-06-10T05:56:52;8.13;;;7.32;;
40116;SDS011;25829;50.228;18.936;2023-06-10T05:59:53;9.98;;;7.70;;
40116;SDS011;25829;50.228;18.936;2023-06-10T06:02:54;8.63;;;7.50;;
40116;SDS011;25829;50.228;18.936;2023-06-10T06:05:54;10.98;;;7.55;;
40116;SDS011;25829;50.228;18.936;2023-06-10T06:08:55;9.48;;;7.15;;
40116;SDS011;25829;50.228;18.936;2023-06-10T06:11:56;7.97;;;6.78;;
40116;SDS011;25829;50.228;18.936;2023-06-10T06:14:57;7.78;;;6.80;;
40116;SDS011;25829;50.228;18.936;2023-06-10T06:17:57;7.47;;;6.78;;
40116;SDS011;25829;50.228;18.936;2023-06-10T06:21:01;7.05;;;6.25;;
40116;SDS011;25829;50.228;18.936;2023-06-10T06:24:07;7.07;;;6.38;;
40116;SDS011;25829;50.228;18.936;2023-06-10T06:33:32;9.63;;;7.05;;
40116;SDS011;25829;50.228;18.936;2023-06-10T06:36:34;9.18;;;7.25;;
40116;SDS011;25829;50.228;18.936;2023-06-10T06:39:35;7.45;;;6.75;;
40116;SDS011;25829;50.228;18.936;2023-06-10T06:42:36;14.02;;;7.97;;
40116;SDS011;25829;50.228;18.936;2023-06-10T06:45:50;11.02;;;7.32;;
40116;SDS011;25829;50.228;18.936;2023-06-10T06:48:51;16.27;;;7.60;;
40116;SDS011;25829;50.228;18.936;2023-06-10T06:51:52;9.07;;;7.55;;
40116;SDS011;25829;50.228;18.936;2023-06-10T06:54:53;8.70;;;7.50;;
40116;SDS011;25829;50.228;18.936;2023-06-10T06:57:53;11.20;;;7.60;;
40116;SDS011;25829;50.228;18.936;2023-06-10T07:00:54;10.02;;;7.65;;
40116;SDS011;25829;50.228;18.936;2023-06-10T07:03:56;11.48;;;7.60;;
40116;SDS011;25829;50.228;18.936;2023-06-10T07:06:57;9.05;;;6.70;;
40116;SDS011;25829;50.228;18.936;2023-06-10T07:09:58;7.97;;;7.28;;
40116;SDS011;25829;50.228;18.936;2023-06-10T07:12:59;7.70;;;6.90;;
40116;SDS011;25829;50.228;18.936;2023-06-10T07:16:00;13.73;;;7.32;;
40116;SDS011;25829;50.228;18.936;2023-06-10T07:19:01;9.07;;;7.25;;
40116;SDS011;25829;50.228;18.936;2023-06-10T07:22:02;8.15;;;6.90;;
40116;SDS011;25829;50.228;18.936;2023-06-10T07:25:14;8.70;;;7.53;;
40116;SDS011;25829;50.228;18.936;2023-06-10T07:28:16;7.93;;;7.00;;
40116;SDS011;25829;50.228;18.936;2023-06-10T07:31:16;8.45;;;6.65;;
40116;SDS011;25829;50.228;18.936;2023-06-10T07:34:17;7.85;;;7.05;;
40116;SDS011;25829;50.228;18.936;2023-06-10T07:37:18;9.43;;;7.72;;
40116;SDS011;25829;50.228;18.936;2023-06-10T07:43:53;7.57;;;6.35;;
40116;SDS011;25829;50.228;18.936;2023-06-10T07:46:57;7.10;;;6.40;;
40116;SDS011;25829;50.228;18.936;2023-06-10T07:50:10;7.28;;;6.57;;
40116;SDS011;25829;50.228;18.936;2023-06-10T07:53:20;7.85;;;6.80;;
40116;SDS011;25829;50.228;18.936;2023-06-10T07:56:32;7.47;;;6.78;;
40116;SDS011;25829;50.228;18.936;2023-06-10T07:59:33;7.57;;;6.88;;
40116;SDS011;25829;50.228;18.936;2023-06-10T08:02:41;7.47;;;6.75;;
40116;SDS011;25829;50.228;18.936;2023-06-10T08:06:02;6.68;;;6.15;;
40116;SDS011;25829;50.228;18.936;2023-06-10T08:09:03;10.55;;;6.35;;
40116;SDS011;25829;50.228;18.936;2023-06-10T08:12:05;9.32;;;6.43;;
40116;SDS011;25829;50.228;18.936;2023-06-10T08:15:06;7.22;;;6.55;;
40116;SDS011;25829;50.228;18.936;2023-06-10T08:18:08;7.15;;;6.45;;
40116;SDS011;25829;50.228;18.936;2023-06-10T08:21:09;7.13;;;6.45;;
40116;SDS011;25829;50.228;18.936;2023-06-10T08:24:10;7.82;;;6.32;;
40116;SDS011;25829;50.228;18.936;2023-06-10T08:27:10;8.57;;;6.35;;
40116;SDS011;25829;50.228;18.936;2023-06-10T08:30:11;7.55;;;6.78;;
40116;SDS011;25829;50.228;18.936;2023-06-10T08:33:16;8.05;;;6.70;;
40116;SDS011;25829;50.228;18.936;2023-06-10T08:36:20;7.20;;;6.50;;
40116;SDS011;25829;50.228;18.936;2023-06-10T08:39:26;6.93;;;5.82;;
40116;SDS011;25829;50.228;18.936;2023-06-10T08:42:33;7.65;;;6.43;;
40116;SDS011;25829;50.228;18.936;2023-06-10T08:45:40;7.22;;;6.30;;
40116;SDS011;25829;50.228;18.936;2023-06-10T08:48:43;7.82;;;6.05;;
40116;SDS011;25829;50.228;18.936;2023-06-10T08:51:46;7.72;;;6.93;;
40116;SDS011;25829;50.228;18.936;2023-06-10T08:54:57;8.57;;;5.82;;
40116;SDS011;25829;50.228;18.936;2023-06-10T08:58:00;7.78;;;6.10;;
40116;SDS011;25829;50.228;18.936;2023-06-10T09:01:01;6.95;;;6.32;;
40116;SDS011;25829;50.228;18.936;2023-06-10T09:04:02;7.10;;;6.47;;
40116;SDS011;25829;50.228;18.936;2023-06-10T09:07:03;8.02;;;5.75;;
40116;SDS011;25829;50.228;18.936;2023-06-10T09:10:05;6.50;;;5.80;;
40116;SDS011;25829;50.228;18.936;2023-06-10T09:13:07;8.60;;;6.18;;
40116;SDS011;25829;50.228;18.936;2023-06-10T09:16:08;6.40;;;5.72;;
40116;SDS011;25829;50.228;18.936;2023-06-10T09:19:11;7.95;;;6.10;;
40116;SDS011;25829;50.228;18.936;2023-06-10T09:22:15;10.88;;;6.30;;
40116;SDS011;25829;50.228;18.936;2023-06-10T09:25:15;6.32;;;5.72;;
40116;SDS011;25829;50.228;18.936;2023-06-10T09:28:18;6.57;;;5.97;;
40116;SDS011;25829;50.228;18.936;2023-06-10T09:31:19;6.53;;;5.72;;
40116;SDS011;25829;50.228;18.936;2023-06-10T09:34:24;10.57;;;6.60;;
40116;SDS011;25829;50.228;18.936;2023-06-10T09:37:25;7.85;;;6.72;;
40116;SDS011;25829;50.228;18.936;2023-06-10T09:40:26;7.75;;;6.18;;
40116;SDS011;25829;50.228;18.936;2023-06-10T09:43:40;8.95;;;7.38;;
40116;SDS011;25829;50.228;18.936;2023-06-10T09:46:45;7.05;;;6.38;;
40116;SDS011;25829;50.228;18.936;2023-06-10T09:49:47;7.35;;;6.63;;
40116;SDS011;25829;50.228;18.936;2023-06-10T09:52:48;9.52;;;7.35;;
40116;SDS011;25829;50.228;18.936;2023-06-10T09:55:51;8.80;;;7.68;;
40116;SDS011;25829;50.228;18.936;2023-06-10T09:58:53;7.05;;;6.38;;
40116;SDS011;25829;50.228;18.936;2023-06-10T10:01:57;7.53;;;6.82;;
40116;SDS011;25829;50.228;18.936;2023-06-10T10:05:04;7.45;;;6.32;;
40116;SDS011;25829;50.228;18.936;2023-06-10T10:08:05;6.53;;;5.72;;
40116;SDS011;25829;50.228;18.936;2023-06-10T10:11:05;10.10;;;5.85;;
40116;SDS011;25829;50.228;18.936;2023-06-10T10:14:06;5.80;;;5.18;;
40116;SDS011;25829;50.228;18.936;2023-06-10T10:17:10;5.40;;;4.68;;
40116;SDS011;25829;50.228;18.936;2023-06-10T10:20:12;9.45;;;4.97;;
40116;SDS011;25829;50.228;18.936;2023-06-10T10:23:29;8.90;;;5.32;;
40116;SDS011;25829;50.228;18.936;2023-06-10T10:26:34;5.82;;;4.15;;
40116;SDS011;25829;50.228;18.936;2023-06-10T10:29:38;6.00;;;4.65;;
40116;SDS011;25829;50.228;18.936;2023-06-10T10:32:42;4.63;;;4.22;;
40116;SDS011;25829;50.228;18.936;2023-06-10T10:35:51;5.72;;;4.53;;
40116;SDS011;25829;50.228;18.936;2023-06-10T10:38:54;5.30;;;4.40;;
40116;SDS011;25829;50.228;18.936;2023-06-10T10:41:55;4.75;;;4.22;;
40116;SDS011;25829;50.228;18.936;2023-06-10T10:44:57;4.95;;;4.05;;
40116;SDS011;25829;50.228;18.936;2023-06-10T10:48:07;6.03;;;4.32;;
40116;SDS011;25829;50.228;18.936;2023-06-10T10:51:22;4.72;;;3.88;;
40116;SDS011;25829;50.228;18.936;2023-06-10T10:54:36;4.50;;;4.10;;
40116;SDS011;25829;50.228;18.936;2023-06-10T10:57:39;4.22;;;3.92;;
40116;SDS011;25829;50.228;18.936;2023-06-10T11:00:44;4.45;;;4.05;;
40116;SDS011;25829;50.228;18.936;2023-06-10T11:03:48;4.40;;;3.80;;
40116;SDS011;25829;50.228;18.936;2023-06-10T11:06:52;4.07;;;3.75;;
40116;SDS011;25829;50.228;18.936;2023-06-10T11:13:07;6.18;;;4.28;;
40116;SDS011;25829;50.228;18.936;2023-06-10T11:16:14;4.32;;;3.92;;
40116;SDS011;25829;50.228;18.936;2023-06-10T11:19:35;4.85;;;3.90;;
40116;SDS011;25829;50.228;18.936;2023-06-10T11:22:58;6.55;;;3.78;;
40116;SDS011;25829;50.228;18.936;2023-06-10T11:29:31;7.90;;;4.40;;
40116;SDS011;25829;50.228;18.936;2023-06-10T11:32:33;4.82;;;4.03;;
40116;SDS011;25829;50.228;18.936;2023-06-10T11:35:34;5.15;;;4.43;;
40116;SDS011;25829;50.228;18.936;2023-06-10T11:38:35;4.70;;;4.13;;
40116;SDS011;25829;50.228;18.936;2023-06-10T11:41:37;4.82;;;4.20;;
40116;SDS011;25829;50.228;18.936;2023-06-10T11:44:39;4.40;;;4.00;;
40116;SDS011;25829;50.228;18.936;2023-06-10T11:47:55;5.65;;;4.35;;
40116;SDS011;25829;50.228;18.936;2023-06-10T11:51:16;4.20;;;3.80;;
40116;SDS011;25829;50.228;18.936;2023-06-10T11:54:17;4.68;;;4.13;;
40116;SDS011;25829;50.228;18.936;2023-06-10T11:57:18;5.43;;;4.78;;
40116;SDS011;25829;50.228;18.936;2023-06-10T12:00:20;4.70;;;4.22;;
40116;SDS011;25829;50.228;18.936;2023-06-10T12:03:21;4.57;;;3.92;;
40116;SDS011;25829;50.228;18.936;2023-06-10T12:06:23;5.10;;;4.57;;
40116;SDS011;25829;50.228;18.936;2023-06-10T12:09:30;4.97;;;4.47;;
40116;SDS011;25829;50.228;18.936;2023-06-10T12:12:34;6.18;;;4.95;;
40116;SDS011;25829;50.228;18.936;2023-06-10T12:15:37;5.75;;;4.50;;
40116;SDS011;25829;50.228;18.936;2023-06-10T12:18:37;5.20;;;4.63;;
40116;SDS011;25829;50.228;18.936;2023-06-10T12:21:38;7.00;;;4.78;;
40116;SDS011;25829;50.228;18.936;2023-06-10T12:24:46;6.57;;;4.40;;
40116;SDS011;25829;50.228;18.936;2023-06-10T12:28:03;10.10;;;4.88;;
40116;SDS011;25829;50.228;18.936;2023-06-10T12:31:07;5.95;;;5.18;;
40116;SDS011;25829;50.228;18.936;2023-06-10T12:34:09;5.45;;;4.53;;
40116;SDS011;25829;50.228;18.936;2023-06-10T12:37:10;5.22;;;4.82;;
40116;SDS011;25829;50.228;18.936;2023-06-10T12:40:15;5.50;;;5.00;;
40116;SDS011;25829;50.228;18.936;2023-06-10T12:43:28;5.43;;;4.70;;
40116;SDS011;25829;50.228;18.936;2023-06-10T12:46:37;11.48;;;10.27;;
40116;SDS011;25829;50.228;18.936;2023-06-10T12:49:38;6.95;;;6.20;;
40116;SDS011;25829;50.228;18.936;2023-06-10T12:52:42;8.88;;;6.40;;
40116;SDS011;25829;50.228;18.936;2023-06-10T12:55:42;6.43;;;5.70;;
40116;SDS011;25829;50.228;18.936;2023-06-10T12:58:45;5.32;;;4.82;;
40116;SDS011;25829;50.228;18.936;2023-06-10T13:01:50;7.43;;;5.50;;
40116;SDS011;25829;50.228;18.936;2023-06-10T13:04:55;7.85;;;5.15;;
40116;SDS011;25829;50.228;18.936;2023-06-10T13:07:57;6.15;;;4.63;;
40116;SDS011;25829;50.228;18.936;2023-06-10T13:10:59;4.95;;;4.50;;
40116;SDS011;25829;50.228;18.936;2023-06-10T13:13:59;4.80;;;4.40;;
40116;SDS011;25829;50.228;18.936;2023-06-10T13:17:00;5.00;;;4.50;;
40116;SDS011;25829;50.228;18.936;2023-06-10T13:20:14;7.15;;;6.22;;
40116;SDS011;25829;50.228;18.936;2023-06-10T13:23:16;5.30;;;4.78;;
40116;SDS011;25829;50.228;18.936;2023-06-10T13:26:17;11.25;;;5.93;;
40116;SDS011;25829;50.228;18.936;2023-06-10T13:29:18;5.50;;;5.00;;
40116;SDS011;25829;50.228;18.936;2023-06-10T13:32:19;7.03;;;4.65;;
40116;SDS011;25829;50.228;18.936;2023-06-10T13:35:20;6.88;;;5.20;;
40116;SDS011;25829;50.228;18.936;2023-06-10T13:38:23;5.40;;;4.90;;
40116;SDS011;25829;50.228;18.936;2023-06-10T13:41:28;8.15;;;4.97;;
40116;SDS011;25829;50.228;18.936;2023-06-10T13:44:28;5.88;;;4.85;;
40116;SDS011;25829;50.228;18.936;2023-06-10T13:47:33;5.60;;;5.10;;
40116;SDS011;25829;50.228;18.936;2023-06-10T13:50:34;5.65;;;4.82;;
40116;SDS011;25829;50.228;18.936;2023-06-10T13:53:35;5.18;;;4.68;;
40116;SDS011;25829;50.228;18.936;2023-06-10T13:56:37;5.53;;;5.03;;
40116;SDS011;25829;50.228;18.936;2023-06-10T13:59:39;6.80;;;4.82;;
40116;SDS011;25829;50.228;18.936;2023-06-10T14:02:40;4.95;;;4.55;;
40116;SDS011;25829;50.228;18.936;2023-06-10T14:05:40;5.82;;;5.15;;
40116;SDS011;25829;50.228;18.936;2023-06-10T14:08:42;5.50;;;5.00;;
40116;SDS011;25829;50.228;18.936;2023-06-10T14:11:43;5.32;;;4.80;;
40116;SDS011;25829;50.228;18.936;2023-06-10T14:14:44;5.57;;;5.07;;
40116;SDS011;25829;50.228;18.936;2023-06-10T14:17:44;6.57;;;5.25;;
40116;SDS011;25829;50.228;18.936;2023-06-10T14:20:45;7.82;;;5.57;;
40116;SDS011;25829;50.228;18.936;2023-06-10T14:23:46;38.70;;;27.67;;
40116;SDS011;25829;50.228;18.936;2023-06-10T14:26:50;22.63;;;16.33;;
40116;SDS011;25829;50.228;18.936;2023-06-10T14:29:51;40.22;;;29.80;;
40116;SDS011;25829;50.228;18.936;2023-06-10T14:32:51;13.35;;;10.73;;
40116;SDS011;25829;50.228;18.936;2023-06-10T14:35:52;10.45;;;8.35;;
40116;SDS011;25829;50.228;18.936;2023-06-10T14:38:53;11.85;;;8.40;;
40116;SDS011;25829;50.228;18.936;2023-06-10T14:41:54;5.22;;;4.15;;
40116;SDS011;25829;50.228;18.936;2023-06-10T14:44:54;4.68;;;3.63;;
40116;SDS011;25829;50.228;18.936;2023-06-10T14:47:55;4.88;;;3.67;;
40116;SDS011;25829;50.228;18.936;2023-06-10T14:50:56;4.18;;;3.20;;
40116;SDS011;25829;50.228;18.936;2023-06-10T14:53:56;3.53;;;2.90;;
40116;SDS011;25829;50.228;18.936;2023-06-10T14:56:58;4.15;;;2.90;;
40116;SDS011;25829;50.228;18.936;2023-06-10T14:59:59;3.28;;;2.97;;
40116;SDS011;25829;50.228;18.936;2023-06-10T15:03:00;3.50;;;3.20;;
40116;SDS011;25829;50.228;18.936;2023-06-10T15:06:00;4.03;;;3.70;;
40116;SDS011;25829;50.228;18.936;2023-06-10T15:09:01;4.63;;;4.10;;
40116;SDS011;25829;50.228;18.936;2023-06-10T15:12:02;5.65;;;3.70;;
40116;SDS011;25829;50.228;18.936;2023-06-10T15:15:04;5.68;;;3.88;;
40116;SDS011;25829;50.228;18.936;2023-06-10T15:18:05;7.43;;;4.47;;
40116;SDS011;25829;50.228;18.936;2023-06-10T15:21:06;5.78;;;4.60;;
40116;SDS011;25829;50.228;18.936;2023-06-10T15:24:07;4.90;;;4.40;;
40116;SDS011;25829;50.228;18.936;2023-06-10T15:27:08;5.20;;;4.63;;
40116;SDS011;25829;50.228;18.936;2023-06-10T15:30:09;4.82;;;4.43;;
40116;SDS011;25829;50.228;18.936;2023-06-10T15:33:09;5.50;;;4.93;;
40116;SDS011;25829;50.228;18.936;2023-06-10T15:36:10;5.47;;;4.97;;
40116;SDS011;25829;50.228;18.936;2023-06-10T15:39:13;7.50;;;5.32;;
40116;SDS011;25829;50.228;18.936;2023-06-10T15:42:14;5.68;;;5.07;;
40116;SDS011;25829;50.228;18.936;2023-06-10T15:45:15;8.13;;;5.63;;
40116;SDS011;25829;50.228;18.936;2023-06-10T15:48:15;6.78;;;5.72;;
40116;SDS011;25829;50.228;18.936;2023-06-10T15:51:16;8.73;;;5.88;;
40116;SDS011;25829;50.228;18.936;2023-06-10T15:54:17;7.65;;;5.90;;
40116;SDS011;25829;50.228;18.936;2023-06-10T15:57:17;7.03;;;5.90;;
40116;SDS011;25829;50.228;18.936;2023-06-10T16:00:19;7.82;;;5.97;;
40116;SDS011;25829;50.228;18.936;2023-06-10T16:03:23;6.85;;;6.15;;
40116;SDS011;25829;50.228;18.936;2023-06-10T16:06:23;7.07;;;6.38;;
40116;SDS011;25829;50.228;18.936;2023-06-10T16:09:24;6.35;;;5.72;;
40116;SDS011;25829;50.228;18.936;2023-06-10T16:12:25;8.90;;;6.20;;
40116;SDS011;25829;50.228;18.936;2023-06-10T16:15:25;7.35;;;6.55;;
40116;SDS011;25829;50.228;18.936;2023-06-10T16:18:26;8.15;;;6.18;;
40116;SDS011;25829;50.228;18.936;2023-06-10T16:21:27;7.18;;;6.00;;
40116;SDS011;25829;50.228;18.936;2023-06-10T16:24:27;6.75;;;6.15;;
40116;SDS011;25829;50.228;18.936;2023-06-10T16:27:28;6.82;;;6.05;;
40116;SDS011;25829;50.228;18.936;2023-06-10T16:30:29;8.20;;;6.00;;
40116;SDS011;25829;50.228;18.936;2023-06-10T16:33:30;7.00;;;5.68;;
40116;SDS011;25829;50.228;18.936;2023-06-10T16:36:31;8.10;;;6.15;;
40116;SDS011;25829;50.228;18.936;2023-06-10T16:39:32;6.65;;;6.07;;
40116;SDS011;25829;50.228;18.936;2023-06-10T16:42:32;7.70;;;6.75;;
40116;SDS011;25829;50.228;18.936;2023-06-10T16:45:33;6.63;;;6.03;;
40116;SDS011;25829;50.228;18.936;2023-06-10T16:48:34;7.43;;;6.45;;
40116;SDS011;25829;50.228;18.936;2023-06-10T16:51:35;6.78;;;5.93;;
40116;SDS011;25829;50.228;18.936;2023-06-10T16:54:35;7.53;;;6.50;;
40116;SDS011;25829;50.228;18.936;2023-06-10T17:00:46;7.05;;;6.40;;
40116;SDS011;25829;50.228;18.936;2023-06-10T17:03:47;8.07;;;6.47;;
40116;SDS011;25829;50.228;18.936;2023-06-10T17:06:48;7.40;;;6.00;;
40116;SDS011;25829;50.228;18.936;2023-06-10T17:09:49;6.88;;;6.10;;
40116;SDS011;25829;50.228;18.936;2023-06-10T17:12:50;6.40;;;5.43;;
40116;SDS011;25829;50.228;18.936;2023-06-10T17:15:50;6.20;;;5.30;;
40116;SDS011;25829;50.228;18.936;2023-06-10T17:18:51;10.73;;;5.60;;
40116;SDS011;25829;50.228;18.936;2023-06-10T17:21:52;5.32;;;4.82;;
40116;SDS011;25829;50.228;18.936;2023-06-10T17:24:53;8.02;;;5.68;;
40116;SDS011;25829;50.228;18.936;2023-06-10T17:27:53;7.28;;;5.50;;
40116;SDS011;25829;50.228;18.936;2023-06-10T17:30:54;5.25;;;4.43;;
40116;SDS011;25829;50.228;18.936;2023-06-10T17:33:55;5.00;;;4.20;;
40116;SDS011;25829;50.228;18.936;2023-06-10T17:36:56;5.57;;;4.10;;
40116;SDS011;25829;50.228;18.936;2023-06-10T17:39:57;4.75;;;4.05;;
40116;SDS011;25829;50.228;18.936;2023-06-10T17:42:58;3.95;;;3.53;;
40116;SDS011;25829;50.228;18.936;2023-06-10T17:45:59;4.95;;;3.35;;
40116;SDS011;25829;50.228;18.936;2023-06-10T17:49:00;4.47;;;3.20;;
40116;SDS011;25829;50.228;18.936;2023-06-10T17:52:01;5.82;;;3.72;;
40116;SDS011;25829;50.228;18.936;2023-06-10T17:55:01;5.65;;;3.05;;
40116;SDS011;25829;50.228;18.936;2023-06-10T17:58:03;6.47;;;3.45;;
40116;SDS011;25829;50.228;18.936;2023-06-10T18:01:04;4.13;;;3.65;;
40116;SDS011;25829;50.228;18.936;2023-06-10T18:04:05;3.72;;;3.40;;
40116;SDS011;25829;50.228;18.936;2023-06-10T18:07:06;4.55;;;3.85;;
40116;SDS011;25829;50.228;18.936;2023-06-10T18:10:07;4.38;;;3.55;;
40116;SDS011;25829;50.228;18.936;2023-06-10T18:13:08;6.70;;;3.50;;
40116;SDS011;25829;50.228;18.936;2023-06-10T18:16:09;5.35;;;3.42;;